Main page
METAR-TAF:

METAR-TAF

Airports :

Bryansk International Airport

Bryansk, Russia

latitude: 53-15N, longitude: 034-19E, elevation: 217 m

Current weather observation

The report was made 4 hours and 44 minutes ago, at 15:00 UTC
Wind 14 kt from the West
Temperature 1°C
Humidity 93%
Pressure 1013 hPa
Visibility: 4000 m
Overcast at a height of 600 ft
mist

METAR: UUBP 211500Z 26007MPS 4000 BR OVC006 01/00 Q1013 R16/190060 NOSIG RMK QFE741/0989

Time: 22:44 (19:44 UTC)

Forecast

The report was made 5 hours and 48 minutes ago, at 13:56 UTC
Forecast valid from 21 at 15 UTC to 21 at 24 UTC
Wind 14 kt from the West with gusts up to 27 kt
Visibility: 6000 m
Overcast at a height of 700 ft
Temporary
from 21 at 15 UTC to 21 at 24 UTC
Visibility: 3100 m
Overcast at a height of 400 ft
light snow, rain, mist

TAF: UUBP 211356Z 2115/2124 26007G14MPS 6000 OVC007 TEMPO 2115/2124 3100 -SNRA BR OVC004

Weather observations and forecasts of more than 4000 airports (METAR and TAF reports).

The available stations are represented by yellow and red dots on the map.

Hover mouse over dot to see the name of the station.

Then click to see weather observations and forecasts.

To change the map : click on the green buttons with a black cross to zoom in, on the green button with a dash to zoom out, or on the green arrows for adjacent maps.


METAR-TAF: